Time;durP1;ratioP1;P1;durP2;ratioP2;P2;SDS_P1;SDS_P2;PMS_P1;PMS_P2;Temp;Humidity;BMP_temperature;BMP_pressure;BME280_temperature;BME280_humidity;BME280_pressure;Samples;Min_cycle;Max_cycle;Signal;HPM_P1;HPM_P2
2023/02/05 00:01:06;;;;;;;32.27;18.90;;;6.40;99.90;;;;;;5077138;28;20032;-70
2023/02/05 00:03:34;;;;;;;30.77;18.53;;;6.40;99.90;;;;;;5085948;28;20028;-70
2023/02/05 00:06:00;;;;;;;32.47;18.80;;;6.40;99.90;;;;;;5089257;28;20278;-70
2023/02/05 00:08:26;;;;;;;30.90;19.23;;;6.40;99.90;;;;;;5083224;28;20059;-70
2023/02/05 00:10:52;;;;;;;32.70;19.17;;;6.30;99.90;;;;;;5083906;28;20122;-70
2023/02/05 00:13:18;;;;;;;29.80;18.85;;;6.30;99.90;;;;;;5077205;28;20037;-70
2023/02/05 00:15:43;;;;;;;32.30;18.63;;;6.20;99.90;;;;;;5086624;28;20024;-70
2023/02/05 00:18:09;;;;;;;31.93;17.77;;;6.30;99.90;;;;;;5089227;28;20024;-70
2023/02/05 00:20:35;;;;;;;30.43;18.80;;;6.20;99.90;;;;;;5088434;28;20038;-70
2023/02/05 00:23:01;;;;;;;27.13;17.48;;;6.40;99.90;;;;;;5083522;28;20035;-70
2023/02/05 00:25:27;;;;;;;26.55;16.90;;;6.40;99.90;;;;;;5089747;28;20039;-70
2023/02/05 00:27:52;;;;;;;27.48;16.55;;;6.40;99.90;;;;;;5088278;28;20035;-70
2023/02/05 00:30:18;;;;;;;34.83;20.47;;;6.40;99.90;;;;;;5089848;28;20063;-70
2023/02/05 00:32:44;;;;;;;39.05;22.75;;;6.40;99.90;;;;;;5084988;28;20030;-70
2023/02/05 00:35:09;;;;;;;29.83;19.10;;;6.40;99.90;;;;;;5089688;28;20135;-70
2023/02/05 00:37:35;;;;;;;32.80;18.17;;;6.40;99.90;;;;;;5081881;28;20032;-70
2023/02/05 00:40:01;;;;;;;29.00;17.27;;;6.30;99.90;;;;;;5088781;28;20024;-70
2023/02/05 00:42:27;;;;;;;27.63;17.92;;;6.30;99.90;;;;;;5088391;28;20102;-70
2023/02/05 00:44:53;;;;;;;27.83;16.55;;;6.20;99.90;;;;;;5088549;28;20107;-70
2023/02/05 00:47:18;;;;;;;26.50;17.07;;;6.30;99.90;;;;;;5083574;28;20062;-70
2023/02/05 00:49:44;;;;;;;31.83;17.92;;;6.30;99.90;;;;;;5085498;28;20083;-70
2023/02/05 00:52:10;;;;;;;29.57;17.90;;;6.40;99.90;;;;;;5077553;28;20040;-70
2023/02/05 00:54:35;;;;;;;27.87;17.33;;;6.40;99.90;;;;;;5089596;28;20082;-70
2023/02/05 00:57:01;;;;;;;27.20;16.53;;;6.40;99.90;;;;;;5087918;28;20036;-70
2023/02/05 00:59:26;;;;;;;27.60;16.47;;;6.50;99.90;;;;;;5088153;28;20036;-70
2023/02/05 01:01:52;;;;;;;25.77;15.37;;;6.60;99.90;;;;;;5085439;28;20038;-70
2023/02/05 01:04:18;;;;;;;26.37;15.87;;;6.60;99.90;;;;;;5088050;28;20447;-70
2023/02/05 01:06:43;;;;;;;24.15;15.43;;;6.60;99.90;;;;;;5067970;28;20035;-70
2023/02/05 01:09:09;;;;;;;24.93;14.80;;;6.60;99.90;;;;;;5088995;28;20040;-70
2023/02/05 01:11:35;;;;;;;23.63;14.90;;;6.60;99.90;;;;;;5089040;28;20470;-70
2023/02/05 01:14:00;;;;;;;21.45;14.73;;;6.60;99.90;;;;;;5086217;28;20078;-70
2023/02/05 01:16:26;;;;;;;21.70;13.70;;;6.60;99.90;;;;;;5088521;28;20792;-70
2023/02/05 01:18:55;;;;;;;21.93;14.33;;;6.70;99.90;;;;;;5083646;28;20035;-70
2023/02/05 01:21:23;;;;;;;21.05;13.43;;;6.70;99.90;;;;;;5088703;28;20290;-70
2023/02/05 01:23:48;;;;;;;22.45;14.68;;;6.80;99.90;;;;;;5069173;28;20032;-70
2023/02/05 01:26:14;;;;;;;21.73;13.90;;;6.80;99.90;;;;;;5087407;28;20039;-70
2023/02/05 01:28:39;;;;;;;18.80;12.90;;;6.80;99.90;;;;;;5085300;28;20412;-70
2023/02/05 01:31:05;;;;;;;20.07;13.10;;;6.90;99.90;;;;;;5088277;28;20127;-70
2023/02/05 01:33:31;;;;;;;19.53;12.50;;;6.90;99.90;;;;;;5087612;28;20036;-70
2023/02/05 01:35:56;;;;;;;21.17;13.23;;;6.80;99.90;;;;;;5087784;28;20151;-70
2023/02/05 01:38:22;;;;;;;22.13;13.60;;;6.80;99.90;;;;;;5087183;28;20428;-70
2023/02/05 01:40:47;;;;;;;21.90;14.03;;;6.80;99.90;;;;;;5087720;28;20060;-70
2023/02/05 01:43:15;;;;;;;23.17;13.93;;;6.80;99.90;;;;;;5086374;28;20028;-70
2023/02/05 01:45:53;;;;;;;22.38;12.75;;;6.80;99.90;;;;;;5087809;28;20028;-70
2023/02/05 01:48:23;;;;;;;19.67;12.38;;;6.70;99.90;;;;;;5087139;28;20024;-70
2023/02/05 01:50:56;;;;;;;22.45;13.15;;;6.70;99.90;;;;;;5087687;28;20553;-70
2023/02/05 01:53:28;;;;;;;33.05;13.35;;;6.70;99.90;;;;;;5084468;28;20085;-70
2023/02/05 01:55:58;;;;;;;21.60;12.15;;;6.60;99.90;;;;;;5087252;28;20040;-70
2023/02/05 01:58:28;;;;;;;20.40;12.73;;;6.60;99.90;;;;;;5082929;28;20032;-70
2023/02/05 02:00:54;;;;;;;18.92;11.75;;;6.60;99.90;;;;;;5087473;28;20028;-70
2023/02/05 02:03:22;;;;;;;17.42;11.98;;;6.60;99.90;;;;;;5086795;28;20056;-70
2023/02/05 02:05:48;;;;;;;16.60;11.45;;;6.70;99.90;;;;;;5087301;28;20028;-70
2023/02/05 02:08:13;;;;;;;18.07;11.67;;;6.70;99.90;;;;;;5086210;28;20032;-70
2023/02/05 02:10:42;;;;;;;22.57;12.43;;;6.70;99.90;;;;;;5085577;28;20059;-70
2023/02/05 02:13:08;;;;;;;19.00;12.45;;;6.70;99.90;;;;;;5086198;28;20025;-70
2023/02/05 02:15:35;;;;;;;20.55;12.30;;;6.70;99.90;;;;;;5086689;28;20036;-70
2023/02/05 02:21:09;;;;;;;20.85;13.00;;;6.80;99.90;;;;;;5083675;28;20097;-70
2023/02/05 02:24:02;;;;;;;17.00;11.32;;;6.80;99.90;;;;;;5085763;28;20152;-70
2023/02/05 02:26:52;;;;;;;20.35;11.82;;;6.80;99.90;;;;;;5086675;28;20024;-70
2023/02/05 02:29:27;;;;;;;22.60;12.30;;;6.80;99.90;;;;;;5091503;28;20044;-70
2023/02/05 02:32:02;;;;;;;20.25;12.18;;;6.80;99.90;;;;;;5073978;28;20663;-70
2023/02/05 02:34:37;;;;;;;18.88;12.35;;;6.80;99.90;;;;;;5087200;28;20020;-70
2023/02/05 02:37:13;;;;;;;19.20;11.80;;;6.90;99.90;;;;;;5086586;28;20020;-70
2023/02/05 02:39:45;;;;;;;17.35;11.80;;;6.90;99.90;;;;;;5086385;28;20031;-70
2023/02/05 02:42:20;;;;;;;21.08;12.68;;;6.80;99.90;;;;;;5086110;28;20020;-70
2023/02/05 02:45:02;;;;;;;20.30;12.10;;;6.90;99.90;;;;;;5086376;28;20051;-70
2023/02/05 02:47:39;;;;;;;17.80;11.23;;;6.80;99.90;;;;;;5086668;28;20020;-70
2023/02/05 02:50:25;;;;;;;18.58;11.32;;;6.80;99.90;;;;;;5086726;28;20122;-70
2023/02/05 02:52:52;;;;;;;16.60;10.52;;;6.70;99.90;;;;;;5083274;28;20028;-70
2023/02/05 02:55:20;;;;;;;16.45;10.77;;;6.70;99.90;;;;;;5086545;28;20039;-70
2023/02/05 02:57:48;;;;;;;18.45;11.73;;;6.70;99.90;;;;;;5085011;28;20039;-70
2023/02/05 03:00:25;;;;;;;17.88;11.65;;;6.80;99.90;;;;;;5086667;28;20031;-70
2023/02/05 03:02:59;;;;;;;15.38;10.77;;;6.70;99.90;;;;;;5084169;28;20033;-70
2023/02/05 03:05:27;;;;;;;19.02;11.50;;;6.70;99.90;;;;;;5086761;28;20036;-70
2023/02/05 03:07:58;;;;;;;20.48;11.90;;;6.70;99.90;;;;;;5084786;28;20016;-70
2023/02/05 03:10:33;;;;;;;17.38;11.43;;;6.70;99.90;;;;;;5086662;28;20048;-71
2023/02/05 03:12:59;;;;;;;18.90;11.18;;;6.70;99.90;;;;;;5082234;28;20103;-70
2023/02/05 03:15:24;;;;;;;21.73;12.53;;;6.70;99.90;;;;;;5086367;28;20111;-70
2023/02/05 03:17:52;;;;;;;17.37;11.03;;;6.80;99.90;;;;;;5085648;28;20097;-70
2023/02/05 03:20:24;;;;;;;18.75;12.65;;;6.70;99.90;;;;;;5084695;28;20286;-70
2023/02/05 03:22:50;;;;;;;21.10;11.98;;;6.70;99.90;;;;;;5084121;28;20032;-70
2023/02/05 03:25:20;;;;;;;15.53;10.20;;;6.80;99.90;;;;;;5086294;28;20419;-70
2023/02/05 03:27:47;;;;;;;24.25;12.55;;;6.80;99.90;;;;;;5083322;28;20723;-70
2023/02/05 03:30:13;;;;;;;;;;;6.80;99.90;;;;;;5086955;28;20036;-71
2023/02/05 03:32:50;;;;;;;18.20;11.63;;;6.80;99.90;;;;;;5085443;28;19908;-70
2023/02/05 03:35:23;;;;;;;19.63;12.35;;;6.70;99.90;;;;;;5082409;28;20111;-70
2023/02/05 03:38:28;;;;;;;19.08;11.55;;;6.70;99.90;;;;;;5080052;28;20059;-70
2023/02/05 03:41:03;;;;;;;19.13;12.35;;;6.70;99.90;;;;;;5081740;28;20025;-70
2023/02/05 03:44:11;;;;;;;21.60;12.23;;;6.70;99.90;;;;;;5084433;28;20043;-70
2023/02/05 03:46:49;;;;;;;20.10;12.48;;;6.70;99.90;;;;;;5029591;28;20044;-70
2023/02/05 03:49:45;;;;;;;19.25;12.35;;;6.80;99.90;;;;;;5084561;28;20032;-70
2023/02/05 03:52:26;;;;;;;18.20;11.57;;;6.70;99.90;;;;;;5087844;28;20038;-70
2023/02/05 03:54:57;;;;;;;20.55;12.88;;;6.80;99.90;;;;;;5089834;28;20020;-70
2023/02/05 03:57:43;;;;;;;20.83;12.30;;;6.80;99.90;;;;;;5092708;28;20520;-70
2023/02/05 04:00:10;;;;;;;20.92;13.50;;;6.70;99.90;;;;;;5090094;28;20028;-70
2023/02/05 04:02:36;;;;;;;19.20;12.52;;;6.70;99.90;;;;;;5092103;28;20506;-70
2023/02/05 04:05:02;;;;;;;22.38;12.48;;;6.60;99.90;;;;;;5089904;28;20032;-70
2023/02/05 04:07:28;;;;;;;24.38;12.18;;;6.60;99.90;;;;;;5089345;28;20031;-70
2023/02/05 04:09:54;;;;;;;18.58;10.70;;;6.70;99.90;;;;;;5087967;28;20047;-70
2023/02/05 04:12:20;;;;;;;17.27;11.33;;;6.60;99.90;;;;;;5088542;28;20416;-70
2023/02/05 04:14:45;;;;;;;16.03;11.67;;;6.60;99.90;;;;;;5089625;28;20036;-70
2023/02/05 04:17:11;;;;;;;18.23;11.20;;;6.60;99.90;;;;;;5084661;28;20564;-70
2023/02/05 04:19:37;;;;;;;22.85;12.13;;;6.60;99.90;;;;;;5089406;28;20031;-70
2023/02/05 04:22:03;;;;;;;19.35;12.30;;;6.60;99.90;;;;;;5088945;28;20111;-70
2023/02/05 04:24:28;;;;;;;21.33;11.60;;;6.60;99.90;;;;;;5087680;28;20057;-70
2023/02/05 04:26:55;;;;;;;20.73;11.67;;;6.60;99.90;;;;;;5089336;28;20031;-70
2023/02/05 04:29:21;;;;;;;19.98;12.82;;;6.60;99.90;;;;;;5087964;28;20040;-70
2023/02/05 04:31:47;;;;;;;16.37;11.37;;;6.50;99.90;;;;;;5088683;28;20107;-70
2023/02/05 04:34:12;;;;;;;16.20;10.83;;;6.40;99.90;;;;;;5088917;28;20059;-70
2023/02/05 04:36:38;;;;;;;17.30;11.27;;;6.40;99.90;;;;;;5082559;28;20057;-70
2023/02/05 04:39:04;;;;;;;16.55;11.15;;;6.40;99.90;;;;;;5096600;28;20519;-70
2023/02/05 04:41:29;;;;;;;20.83;12.57;;;6.40;99.90;;;;;;5089538;28;20036;-70
2023/02/05 04:43:55;;;;;;;18.23;11.20;;;6.40;99.90;;;;;;5088917;28;20081;-70
2023/02/05 04:46:20;;;;;;;17.90;11.43;;;6.20;99.90;;;;;;5086059;28;20038;-69
2023/02/05 04:48:46;;;;;;;16.47;11.43;;;6.20;99.90;;;;;;5094202;28;20534;-70
2023/02/05 04:51:13;;;;;;;20.20;12.00;;;6.10;99.90;;;;;;5088646;28;20039;-70
2023/02/05 04:53:39;;;;;;;;;;;6.00;99.90;;;;;;5088194;28;20118;-70
2023/02/05 04:56:08;;;;;;;20.33;12.40;;;6.00;99.90;;;;;;5089376;28;20346;-70
2023/02/05 04:58:34;;;;;;;19.50;12.55;;;6.00;99.90;;;;;;5087073;28;20055;-70
2023/02/05 05:01:00;;;;;;;16.58;11.18;;;6.00;99.90;;;;;;5088397;28;20032;-70
2023/02/05 05:03:26;;;;;;;23.08;12.55;;;6.00;99.90;;;;;;5088081;28;20503;-70
2023/02/05 05:05:51;;;;;;;20.80;12.43;;;6.00;99.90;;;;;;5088350;28;20043;-70
2023/02/05 05:08:20;;;;;;;18.93;12.70;;;5.90;99.90;;;;;;5084552;28;20115;-70
2023/02/05 05:10:46;;;;;;;24.38;13.77;;;5.80;99.90;;;;;;5086846;28;20583;-70
2023/02/05 05:13:11;;;;;;;22.63;12.47;;;5.80;99.90;;;;;;5083101;28;20081;-70
2023/02/05 05:15:37;;;;;;;19.57;12.57;;;5.80;99.90;;;;;;5088283;28;20063;-70
2023/02/05 05:18:03;;;;;;;20.00;12.63;;;5.80;99.90;;;;;;5086649;28;20551;-70
2023/02/05 05:20:28;;;;;;;21.23;13.13;;;5.80;99.90;;;;;;5087871;28;20285;-70
2023/02/05 05:22:54;;;;;;;22.93;11.70;;;5.80;99.90;;;;;;5085849;28;20047;-70
2023/02/05 05:25:21;;;;;;;19.52;11.77;;;5.80;99.90;;;;;;5088176;28;20042;-70
2023/02/05 05:27:46;;;;;;;;;;;5.70;99.90;;;;;;5087870;28;20036;-70
2023/02/05 05:30:13;;;;;;;17.80;11.77;;;5.60;99.90;;;;;;5082412;28;19920;-70
2023/02/05 05:32:39;;;;;;;23.17;13.13;;;5.60;99.90;;;;;;5079583;28;20033;-70
2023/02/05 05:35:05;;;;;;;18.70;11.95;;;5.60;99.90;;;;;;5080918;28;20033;-71
2023/02/05 05:37:30;;;;;;;21.27;12.80;;;5.70;99.90;;;;;;5091547;28;20065;-70
2023/02/05 05:45:24;;;;;;;29.25;15.85;;;5.90;99.90;;;;;;5083920;28;20461;-70
2023/02/05 05:47:50;;;;;;;24.00;13.37;;;5.90;99.90;;;;;;5085615;28;20024;-70
2023/02/05 05:50:16;;;;;;;20.50;13.63;;;5.80;99.90;;;;;;5092069;28;20081;-70
2023/02/05 05:52:41;;;;;;;26.90;12.80;;;5.80;99.90;;;;;;5086228;28;20285;-70
2023/02/05 05:55:07;;;;;;;25.48;13.07;;;5.70;99.90;;;;;;5087129;28;20423;-70
2023/02/05 05:57:33;;;;;;;29.37;13.47;;;5.80;99.90;;;;;;5086871;28;20020;-70
2023/02/05 05:59:59;;;;;;;23.03;14.30;;;5.70;99.90;;;;;;5086727;28;20497;-69
2023/02/05 06:02:24;;;;;;;26.25;14.55;;;5.60;99.90;;;;;;5086651;28;20031;-70
2023/02/05 06:04:50;;;;;;;26.33;15.40;;;5.60;99.90;;;;;;5086584;28;20496;-70
2023/02/05 06:07:15;;;;;;;19.83;13.27;;;5.70;99.90;;;;;;5084930;28;20093;-70
2023/02/05 06:09:41;;;;;;;24.30;14.13;;;5.70;99.90;;;;;;5086767;28;21067;-70
2023/02/05 06:12:07;;;;;;;22.75;12.80;;;5.70;99.90;;;;;;5084619;28;20098;-70
2023/02/05 06:14:33;;;;;;;19.58;13.63;;;5.70;99.90;;;;;;5086543;28;20039;-70
2023/02/05 06:16:58;;;;;;;20.73;12.30;;;5.70;99.90;;;;;;5085207;28;20055;-70
2023/02/05 06:19:24;;;;;;;22.00;12.90;;;5.60;99.90;;;;;;5086748;28;20286;-70
2023/02/05 06:21:50;;;;;;;25.13;12.90;;;5.60;99.90;;;;;;5086055;28;20077;-70
2023/02/05 06:24:15;;;;;;;21.60;12.80;;;5.50;99.90;;;;;;5085485;28;20418;-69
2023/02/05 06:26:41;;;;;;;26.97;13.87;;;5.60;99.90;;;;;;5084324;28;20452;-69
2023/02/05 06:29:06;;;;;;;21.07;12.80;;;5.50;99.90;;;;;;5078738;28;20119;-69
2023/02/05 06:31:32;;;;;;;26.87;15.13;;;5.40;99.90;;;;;;5086818;28;20107;-69
2023/02/05 06:34:00;;;;;;;21.57;13.30;;;5.30;99.90;;;;;;5085380;28;20620;-69
2023/02/05 06:36:25;;;;;;;22.33;13.85;;;5.20;99.90;;;;;;5086826;28;20035;-70
2023/02/05 06:38:51;;;;;;;24.35;13.63;;;5.10;99.90;;;;;;5083709;28;20036;-69
2023/02/05 06:41:17;;;;;;;21.90;13.23;;;4.90;99.90;;;;;;5086088;28;20024;-69
2023/02/05 06:43:42;;;;;;;24.23;14.00;;;4.80;99.90;;;;;;5085243;28;20392;-70
2023/02/05 06:46:08;;;;;;;24.97;14.50;;;4.70;99.90;;;;;;5086231;28;20059;-69
2023/02/05 06:48:34;;;;;;;24.40;13.87;;;4.70;99.90;;;;;;5085422;28;20024;-69
2023/02/05 06:50:59;;;;;;;24.63;12.90;;;4.70;99.90;;;;;;5085545;28;20040;-69
2023/02/05 06:53:25;;;;;;;22.00;13.57;;;4.70;99.90;;;;;;5080853;28;20032;-69
2023/02/05 06:55:50;;;;;;;20.37;12.63;;;4.60;99.90;;;;;;5085824;28;20035;-69
2023/02/05 06:58:16;;;;;;;19.77;12.30;;;4.60;99.90;;;;;;5083884;28;20811;-70
2023/02/05 07:00:41;;;;;;;25.33;13.87;;;4.50;99.90;;;;;;5086083;28;20028;-70
2023/02/05 07:03:07;;;;;;;23.83;13.43;;;4.50;99.90;;;;;;5078486;28;20102;-70
2023/02/05 07:05:33;;;;;;;26.83;13.77;;;4.50;99.90;;;;;;5085780;28;20101;-70
2023/02/05 07:07:58;;;;;;;23.75;13.32;;;4.50;99.90;;;;;;5081910;28;20381;-70
2023/02/05 07:10:24;;;;;;;29.70;14.00;;;4.40;99.90;;;;;;5085506;28;20073;-71
2023/02/05 07:12:50;;;;;;;24.83;13.48;;;4.40;99.90;;;;;;5080231;28;20039;-70
2023/02/05 07:15:16;;;;;;;26.67;14.30;;;4.40;99.90;;;;;;5086439;28;20038;-71
2023/02/05 07:17:41;;;;;;;23.47;13.73;;;4.30;99.90;;;;;;5084454;28;20462;-72
2023/02/05 07:20:09;;;;;;;25.53;14.53;;;4.40;99.90;;;;;;5086451;28;20028;-71
2023/02/05 07:22:34;;;;;;;24.90;14.43;;;4.40;99.90;;;;;;5085793;28;20719;-74
2023/02/05 07:25:00;;;;;;;26.20;14.77;;;4.40;99.90;;;;;;5086705;28;20103;-72
2023/02/05 07:27:25;;;;;;;24.60;14.75;;;4.40;99.90;;;;;;5086573;28;20043;-70
2023/02/05 07:29:51;;;;;;;25.30;14.48;;;4.40;99.90;;;;;;5082562;28;20440;-70
2023/02/05 07:32:17;;;;;;;22.35;13.77;;;4.40;99.90;;;;;;5084819;28;20036;-69
2023/02/05 07:34:42;;;;;;;25.73;14.23;;;4.40;99.90;;;;;;5084037;28;20040;-69
2023/02/05 07:37:11;;;;;;;30.23;15.10;;;4.40;99.90;;;;;;5087258;28;20027;-70
2023/02/05 07:39:37;;;;;;;26.70;14.57;;;4.40;99.90;;;;;;5089044;28;20028;-70
2023/02/05 07:42:02;;;;;;;22.60;14.43;;;4.40;99.90;;;;;;5089234;28;20036;-69
2023/02/05 07:44:28;;;;;;;28.40;16.70;;;4.40;99.90;;;;;;5085635;28;20044;-71
2023/02/05 07:46:54;;;;;;;26.97;14.83;;;4.40;99.90;;;;;;5082387;28;20273;-71
2023/02/05 07:49:20;;;;;;;28.42;14.82;;;4.50;99.90;;;;;;5083767;28;20062;-71
2023/02/05 07:51:46;;;;;;;28.10;14.98;;;4.50;99.90;;;;;;5080885;28;20462;-70
2023/02/05 07:54:13;;;;;;;26.70;16.02;;;4.60;99.90;;;;;;5078947;28;20025;-70
2023/02/05 07:56:39;;;;;;;28.90;14.23;;;4.70;99.90;;;;;;5084151;28;20032;-70
2023/02/05 07:59:05;;;;;;;28.27;15.25;;;4.80;99.90;;;;;;5086425;28;20024;-71
2023/02/05 08:01:31;;;;;;;;;;;5.20;99.90;;;;;;5084092;28;20498;-71
2023/02/05 08:03:57;;;;;;;22.63;13.25;;;5.20;99.90;;;;;;5084474;28;19923;-71
2023/02/05 08:06:22;;;;;;;21.63;12.77;;;5.10;99.90;;;;;;5091470;28;20043;-71
2023/02/05 08:08:48;;;;;;;19.90;12.10;;;5.40;99.90;;;;;;5089462;28;20047;-71
2023/02/05 08:11:16;;;;;;;23.63;14.27;;;6.00;99.90;;;;;;5089362;28;20282;-71
2023/02/05 08:13:43;;;;;;;19.10;12.05;;;7.70;99.90;;;;;;5088864;28;20024;-72
2023/02/05 08:16:10;;;;;;;21.00;12.63;;;8.90;99.90;;;;;;5088029;28;20024;-71
2023/02/05 08:18:35;;;;;;;22.10;11.75;;;9.40;99.90;;;;;;5089373;28;20028;-71
2023/02/05 08:21:01;;;;;;;18.80;11.57;;;8.60;99.90;;;;;;5089310;28;20395;-73
2023/02/05 08:23:27;;;;;;;18.43;11.10;;;7.90;99.90;;;;;;5087816;28;20034;-72
2023/02/05 08:25:54;;;;;;;17.90;11.23;;;7.80;99.90;;;;;;5081786;28;20035;-71
2023/02/05 08:28:19;;;;;;;;;;;7.60;99.90;;;;;;5079756;28;20121;-70
2023/02/05 08:30:45;;;;;;;14.73;9.13;;;7.30;99.90;;;;;;5084005;28;20446;-71
2023/02/05 08:33:10;;;;;;;17.83;10.77;;;7.20;99.90;;;;;;5085551;28;20024;-71
2023/02/05 08:35:36;;;;;;;19.67;10.70;;;7.10;99.90;;;;;;5085918;28;20056;-71
2023/02/05 08:38:02;;;;;;;18.40;11.32;;;7.10;99.90;;;;;;5083909;28;20046;-71
2023/02/05 08:40:28;;;;;;;17.10;10.17;;;8.50;99.90;;;;;;5084859;28;20518;-71
2023/02/05 08:42:56;;;;;;;17.92;10.05;;;9.60;99.90;;;;;;5086255;28;20059;-70
2023/02/05 08:45:24;;;;;;;20.13;11.25;;;9.70;99.90;;;;;;5088210;28;20032;-70
2023/02/05 08:47:49;;;;;;;16.80;10.07;;;9.40;99.90;;;;;;5088614;28;20016;-70
2023/02/05 08:50:15;;;;;;;17.80;10.50;;;9.10;99.90;;;;;;5088955;28;20389;-70
2023/02/05 08:52:41;;;;;;;15.40;9.60;;;8.80;99.90;;;;;;5088982;28;20055;-70
2023/02/05 08:55:07;;;;;;;14.00;9.43;;;8.70;99.90;;;;;;5088521;28;20031;-70
2023/02/05 08:57:33;;;;;;;15.18;10.18;;;8.60;99.90;;;;;;5087781;28;20103;-70
2023/02/05 08:59:59;;;;;;;16.92;9.35;;;8.40;99.90;;;;;;5088470;28;20039;-70
2023/02/05 09:02:24;;;;;;;16.73;9.67;;;8.20;99.90;;;;;;5089423;28;20404;-70
2023/02/05 09:04:50;;;;;;;20.08;10.50;;;8.10;99.90;;;;;;5088577;28;20032;-70
2023/02/05 09:07:16;;;;;;;17.60;10.27;;;8.00;99.90;;;;;;5088716;28;20036;-70
2023/02/05 09:09:42;;;;;;;14.65;9.57;;;7.90;99.90;;;;;;5088456;28;20044;-70
2023/02/05 09:12:11;;;;;;;15.40;9.60;;;7.70;99.90;;;;;;5088900;28;20031;-70
2023/02/05 09:14:40;;;;;;;16.40;9.27;;;7.40;99.90;;;;;;5089066;28;20124;-70
2023/02/05 09:17:08;;;;;;;15.88;10.18;;;7.50;99.90;;;;;;5089170;28;20039;-70
2023/02/05 09:19:38;;;;;;;15.32;9.50;;;7.60;99.90;;;;;;5088644;28;20054;-70
2023/02/05 09:22:05;;;;;;;23.70;10.55;;;7.60;99.90;;;;;;5088636;28;20028;-70
2023/02/05 09:24:31;;;;;;;14.30;8.32;;;7.60;99.90;;;;;;5088318;28;20056;-70
2023/02/05 09:26:56;;;;;;;13.10;9.27;;;7.90;99.90;;;;;;5088240;28;20825;-70
2023/02/05 09:29:22;;;;;;;14.47;8.80;;;8.00;99.90;;;;;;5088423;28;20044;-70
2023/02/05 09:31:48;;;;;;;14.13;8.77;;;8.10;99.90;;;;;;5088149;28;20064;-70
2023/02/05 09:34:14;;;;;;;17.27;9.37;;;8.00;99.90;;;;;;5088309;28;20120;-70
2023/02/05 09:36:40;;;;;;;14.60;9.07;;;7.90;99.90;;;;;;5087996;28;20475;-70
2023/02/05 09:39:07;;;;;;;14.93;9.00;;;8.10;99.90;;;;;;5088613;28;20032;-70
2023/02/05 09:42:01;;;;;;;16.80;9.07;;;8.40;99.90;;;;;;5086469;28;20504;-70
2023/02/05 09:44:45;;;;;;;15.20;8.38;;;8.40;99.90;;;;;;5077662;28;20028;-70
2023/02/05 09:47:42;;;;;;;16.00;8.93;;;8.70;99.90;;;;;;5085076;28;20494;-70
2023/02/05 09:50:26;;;;;;;16.48;8.43;;;8.80;99.90;;;;;;5083960;28;20087;-70
2023/02/05 09:52:58;;;;;;;15.98;9.07;;;8.80;99.90;;;;;;5076142;28;20120;-71
2023/02/05 09:55:28;;;;;;;13.05;7.95;;;8.90;99.90;;;;;;5087233;28;20057;-70
2023/02/05 09:58:00;;;;;;;14.90;7.82;;;8.90;99.90;;;;;;5072785;28;20037;-71
2023/02/05 10:00:31;;;;;;;16.80;7.88;;;8.60;99.90;;;;;;5087042;28;20078;-70
2023/02/05 10:03:35;;;;;;;17.40;8.50;;;8.50;99.90;;;;;;5083795;28;20036;-70
2023/02/05 10:06:06;;;;;;;14.90;8.18;;;8.40;99.90;;;;;;5086138;28;20062;-70
2023/02/05 10:08:49;;;;;;;20.05;11.20;;;9.00;99.90;;;;;;5083793;28;20177;-70
2023/02/05 10:11:30;;;;;;;17.42;9.70;;;10.10;98.20;;;;;;5084704;28;20049;-70
2023/02/05 10:14:31;;;;;;;15.38;8.30;;;10.40;97.50;;;;;;5084140;28;20024;-70
2023/02/05 10:17:11;;;;;;;14.95;8.73;;;9.80;98.10;;;;;;5087238;28;20335;-69
2023/02/05 10:20:01;;;;;;;18.98;9.15;;;9.10;99.40;;;;;;5087437;28;20446;-70
2023/02/05 10:23:10;;;;;;;20.77;10.35;;;9.10;99.50;;;;;;5084411;28;20106;-69
2023/02/05 10:25:57;;;;;;;16.38;8.35;;;12.50;95.70;;;;;;5077851;28;20074;-70
2023/02/05 10:29:02;;;;;;;14.50;8.20;;;15.10;88.40;;;;;;5081972;28;20028;-72
2023/02/05 10:31:46;;;;;;;11.32;7.20;;;13.80;89.60;;;;;;5082570;28;20479;-71
2023/02/05 10:34:29;;;;;;;14.43;7.78;;;12.30;92.10;;;;;;5081138;28;20035;-71
2023/02/05 10:36:55;;;;;;;16.70;8.10;;;11.70;94.00;;;;;;5084658;28;20031;-71
2023/02/05 10:39:32;;;;;;;12.77;7.20;;;11.40;95.60;;;;;;5086753;28;20633;-71
2023/02/05 10:42:25;;;;;;;9.93;6.63;;;11.40;95.50;;;;;;5086438;28;20034;-72
2023/02/05 10:45:08;;;;;;;12.45;6.22;;;11.50;94.90;;;;;;5079117;28;20059;-71
2023/02/05 10:47:57;;;;;;;11.85;6.43;;;11.40;95.30;;;;;;5083303;28;20059;-71
2023/02/05 10:50:48;;;;;;;15.93;7.32;;;11.30;95.50;;;;;;5078856;28;20054;-71
2023/02/05 10:53:18;;;;;;;11.40;5.43;;;11.00;97.00;;;;;;5082120;28;20038;-71
2023/02/05 10:55:44;;;;;;;11.50;5.25;;;11.00;96.50;;;;;;5082409;28;20076;-71
2023/02/05 10:58:44;;;;;;;9.30;4.00;;;11.30;95.70;;;;;;5073845;28;20072;-70
2023/02/05 11:01:17;;;;;;;11.23;5.53;;;10.80;95.10;;;;;;5089602;28;20440;-70
2023/02/05 11:03:58;;;;;;;8.43;4.28;;;10.80;94.40;;;;;;5086466;28;20081;-71
2023/02/05 11:06:27;;;;;;;11.93;5.47;;;10.80;95.70;;;;;;5086559;28;20442;-71
2023/02/05 11:08:53;;;;;;;11.55;4.75;;;10.80;97.00;;;;;;5085975;28;20612;-71
2023/02/05 11:11:22;;;;;;;9.53;5.20;;;11.00;95.30;;;;;;5086545;28;20032;-71
2023/02/05 11:13:52;;;;;;;8.52;3.97;;;11.30;95.80;;;;;;5082330;28;20058;-72
2023/02/05 11:16:18;;;;;;;9.75;3.95;;;11.20;95.60;;;;;;5086863;28;20040;-71
2023/02/05 11:18:53;;;;;;;13.43;5.00;;;11.10;95.40;;;;;;5086400;28;20020;-71
2023/02/05 11:21:20;;;;;;;13.70;4.83;;;11.30;95.70;;;;;;5078830;28;20075;-69
2023/02/05 11:23:56;;;;;;;11.23;4.63;;;11.60;95.30;;;;;;5085350;28;20529;-70
2023/02/05 11:26:27;;;;;;;12.95;5.50;;;11.60;95.20;;;;;;5086464;28;20032;-70
2023/02/05 11:28:53;;;;;;;10.13;4.20;;;11.60;95.30;;;;;;5083420;28;20518;-70
2023/02/05 11:31:31;;;;;;;11.97;4.53;;;11.30;95.60;;;;;;5086589;28;20032;-70
2023/02/05 11:34:13;;;;;;;15.73;4.57;;;11.20;95.50;;;;;;5086213;28;20334;-70
2023/02/05 11:36:49;;;;;;;12.00;4.53;;;11.10;95.80;;;;;;5084833;28;20030;-71
2023/02/05 11:39:23;;;;;;;8.13;3.97;;;10.90;95.20;;;;;;5086370;28;20874;-69
2023/02/05 11:41:55;;;;;;;10.73;3.78;;;11.00;95.40;;;;;;5085687;28;20098;-70
2023/02/05 11:44:25;;;;;;;11.05;4.53;;;11.10;95.10;;;;;;5086344;28;20035;-70
2023/02/05 11:46:55;;;;;;;9.00;4.32;;;11.10;94.90;;;;;;5084295;28;20031;-68
2023/02/05 11:49:34;;;;;;;11.30;4.07;;;10.90;95.10;;;;;;5084725;28;20439;-69
2023/02/05 11:52:08;;;;;;;7.88;3.67;;;10.90;95.20;;;;;;5082626;28;20390;-70
2023/02/05 11:54:35;;;;;;;11.32;4.20;;;10.80;95.90;;;;;;5086229;28;20040;-68
2023/02/05 11:57:18;;;;;;;13.18;4.40;;;10.60;96.20;;;;;;5085219;28;20031;-69
2023/02/05 11:59:57;;;;;;;11.52;4.07;;;10.60;96.30;;;;;;5081253;28;20028;-68
2023/02/05 12:02:28;;;;;;;10.80;3.80;;;10.80;96.30;;;;;;5085519;28;20032;-69
2023/02/05 12:05:07;;;;;;;13.73;4.72;;;10.70;96.30;;;;;;5078101;28;20404;-68
2023/02/05 12:07:39;;;;;;;9.38;3.63;;;11.00;96.20;;;;;;5082358;28;20071;-68
2023/02/05 12:10:14;;;;;;;11.90;3.65;;;10.90;95.90;;;;;;5082005;28;20035;-68
2023/02/05 12:12:50;;;;;;;9.77;3.25;;;11.20;95.70;;;;;;5087120;28;20016;-69
2023/02/05 12:15:28;;;;;;;10.43;4.07;;;11.00;95.10;;;;;;5088482;28;20028;-70
2023/02/05 12:18:12;;;;;;;13.20;3.70;;;11.10;95.50;;;;;;5087936;28;20020;-69
2023/02/05 12:21:09;;;;;;;14.45;3.53;;;11.20;95.60;;;;;;5096745;28;20037;-69
2023/02/05 12:24:12;;;;;;;14.25;3.55;;;11.00;95.90;;;;;;5089529;28;20073;-67
2023/02/05 12:26:44;;;;;;;10.85;3.55;;;11.10;95.70;;;;;;5032114;28;20039;-68
2023/02/05 12:29:30;;;;;;;11.32;4.30;;;11.10;95.40;;;;;;5089133;28;20093;-69
2023/02/05 12:32:21;;;;;;;10.18;3.83;;;11.20;95.20;;;;;;5086373;28;20595;-68
2023/02/05 12:34:59;;;;;;;17.27;3.45;;;11.10;95.10;;;;;;5075896;28;20044;-68
2023/02/05 12:37:30;;;;;;;10.90;3.50;;;10.80;95.00;;;;;;5079418;28;20039;-68
2023/02/05 12:40:12;;;;;;;9.15;3.70;;;10.90;95.30;;;;;;5088768;28;20040;-68
2023/02/05 12:43:04;;;;;;;10.68;3.70;;;11.00;95.50;;;;;;5089285;28;20813;-68
2023/02/05 12:45:38;;;;;;;9.43;4.32;;;11.00;95.20;;;;;;5081564;28;20130;-68
2023/02/05 12:48:18;;;;;;;10.10;3.78;;;11.00;95.30;;;;;;5088133;28;20374;-68
2023/02/05 12:50:49;;;;;;;14.48;3.28;;;10.70;95.30;;;;;;5084043;28;20036;-68
2023/02/05 12:53:42;;;;;;;18.10;4.25;;;10.60;95.80;;;;;;5086863;28;20514;-68
2023/02/05 12:56:27;;;;;;;9.00;3.58;;;10.50;96.60;;;;;;5088146;28;20076;-68
2023/02/05 12:58:59;;;;;;;9.65;4.13;;;10.40;96.70;;;;;;5079372;28;20780;-68
2023/02/05 13:01:35;;;;;;;11.80;4.72;;;10.60;97.00;;;;;;5087018;28;20074;-69
2023/02/05 13:04:01;;;;;;;8.77;4.05;;;10.60;97.20;;;;;;5087461;28;20028;-68
2023/02/05 13:06:43;;;;;;;11.13;5.88;;;10.60;97.10;;;;;;5087766;28;20496;-68